sensor_id;sensor_type;location;lat;lon;timestamp;temperature;humidity
9965;DHT22;5023;53.554;9.964;2023-07-31T00:00:18;16.30;99.90
9965;DHT22;5023;53.554;9.964;2023-07-31T00:05:19;16.40;99.90
9965;DHT22;5023;53.554;9.964;2023-07-31T00:10:23;16.40;99.90
9965;DHT22;5023;53.554;9.964;2023-07-31T00:15:25;16.40;99.90
9965;DHT22;5023;53.554;9.964;2023-07-31T00:20:27;16.50;99.90
9965;DHT22;5023;53.554;9.964;2023-07-31T00:25:33;16.40;99.90
9965;DHT22;5023;53.554;9.964;2023-07-31T00:30:35;16.40;99.90
9965;DHT22;5023;53.554;9.964;2023-07-31T00:35:37;16.40;99.90
9965;DHT22;5023;53.554;9.964;2023-07-31T00:40:40;16.40;99.90
9965;DHT22;5023;53.554;9.964;2023-07-31T00:45:42;16.40;99.90
9965;DHT22;5023;53.554;9.964;2023-07-31T00:50:44;16.40;99.90
9965;DHT22;5023;53.554;9.964;2023-07-31T00:55:48;16.30;99.90
9965;DHT22;5023;53.554;9.964;2023-07-31T01:00:50;16.30;99.90
9965;DHT22;5023;53.554;9.964;2023-07-31T01:06:00;16.30;99.90
9965;DHT22;5023;53.554;9.964;2023-07-31T01:11:11;16.30;99.90
9965;DHT22;5023;53.554;9.964;2023-07-31T01:16:15;16.30;99.90
9965;DHT22;5023;53.554;9.964;2023-07-31T01:21:44;16.30;99.90
9965;DHT22;5023;53.554;9.964;2023-07-31T01:26:56;16.30;99.90
9965;DHT22;5023;53.554;9.964;2023-07-31T01:32:01;16.30;99.90
9965;DHT22;5023;53.554;9.964;2023-07-31T01:37:04;16.20;99.90
9965;DHT22;5023;53.554;9.964;2023-07-31T01:42:08;16.20;99.90
9965;DHT22;5023;53.554;9.964;2023-07-31T01:47:10;16.20;99.90
9965;DHT22;5023;53.554;9.964;2023-07-31T01:52:11;16.20;99.90
9965;DHT22;5023;53.554;9.964;2023-07-31T01:57:15;16.20;99.90
9965;DHT22;5023;53.554;9.964;2023-07-31T02:02:16;16.20;99.90
9965;DHT22;5023;53.554;9.964;2023-07-31T02:07:18;16.10;99.90
9965;DHT22;5023;53.554;9.964;2023-07-31T02:12:22;16.20;99.90
9965;DHT22;5023;53.554;9.964;2023-07-31T02:17:24;16.20;99.90
9965;DHT22;5023;53.554;9.964;2023-07-31T02:22:25;16.20;99.90
9965;DHT22;5023;53.554;9.964;2023-07-31T02:27:29;16.20;99.90
9965;DHT22;5023;53.554;9.964;2023-07-31T02:32:31;16.20;99.90
9965;DHT22;5023;53.554;9.964;2023-07-31T02:37:33;16.10;99.90
9965;DHT22;5023;53.554;9.964;2023-07-31T02:42:37;16.10;99.90
9965;DHT22;5023;53.554;9.964;2023-07-31T02:47:39;16.20;99.90
9965;DHT22;5023;53.554;9.964;2023-07-31T02:52:40;16.20;99.90
9965;DHT22;5023;53.554;9.964;2023-07-31T02:57:44;16.20;99.90
9965;DHT22;5023;53.554;9.964;2023-07-31T03:02:46;16.20;99.90
9965;DHT22;5023;53.554;9.964;2023-07-31T03:07:47;16.10;99.90
9965;DHT22;5023;53.554;9.964;2023-07-31T03:12:51;16.10;99.90
9965;DHT22;5023;53.554;9.964;2023-07-31T03:17:52;16.10;99.90
9965;DHT22;5023;53.554;9.964;2023-07-31T03:22:54;16.20;99.90
9965;DHT22;5023;53.554;9.964;2023-07-31T03:27:57;16.10;99.90
9965;DHT22;5023;53.554;9.964;2023-07-31T03:32:59;16.10;99.90
9965;DHT22;5023;53.554;9.964;2023-07-31T03:38:01;16.20;99.90
9965;DHT22;5023;53.554;9.964;2023-07-31T03:43:05;16.20;99.90
9965;DHT22;5023;53.554;9.964;2023-07-31T03:48:07;16.20;99.90
9965;DHT22;5023;53.554;9.964;2023-07-31T03:53:09;16.20;99.90
9965;DHT22;5023;53.554;9.964;2023-07-31T03:58:12;16.20;99.90
9965;DHT22;5023;53.554;9.964;2023-07-31T04:03:14;16.20;99.90
9965;DHT22;5023;53.554;9.964;2023-07-31T04:08:16;16.20;99.90
9965;DHT22;5023;53.554;9.964;2023-07-31T04:13:21;16.20;99.90
9965;DHT22;5023;53.554;9.964;2023-07-31T04:18:25;16.30;99.90
9965;DHT22;5023;53.554;9.964;2023-07-31T04:23:27;16.30;99.90
9965;DHT22;5023;53.554;9.964;2023-07-31T04:28:30;16.30;99.90
9965;DHT22;5023;53.554;9.964;2023-07-31T04:33:32;16.30;99.90
9965;DHT22;5023;53.554;9.964;2023-07-31T04:38:34;16.30;99.90
9965;DHT22;5023;53.554;9.964;2023-07-31T04:43:37;16.30;99.90
9965;DHT22;5023;53.554;9.964;2023-07-31T04:48:40;16.30;99.90
9965;DHT22;5023;53.554;9.964;2023-07-31T04:53:42;16.30;99.90
9965;DHT22;5023;53.554;9.964;2023-07-31T04:58:45;16.20;99.90
9965;DHT22;5023;53.554;9.964;2023-07-31T05:03:47;16.20;99.90
9965;DHT22;5023;53.554;9.964;2023-07-31T05:08:49;16.20;99.90
9965;DHT22;5023;53.554;9.964;2023-07-31T05:13:52;16.20;99.90
9965;DHT22;5023;53.554;9.964;2023-07-31T05:18:54;16.10;99.90
9965;DHT22;5023;53.554;9.964;2023-07-31T05:23:56;16.20;99.90
9965;DHT22;5023;53.554;9.964;2023-07-31T05:28:59;16.10;99.90
9965;DHT22;5023;53.554;9.964;2023-07-31T05:34:01;16.20;99.90
9965;DHT22;5023;53.554;9.964;2023-07-31T05:39:03;16.10;99.90
9965;DHT22;5023;53.554;9.964;2023-07-31T05:44:09;16.00;99.90
9965;DHT22;5023;53.554;9.964;2023-07-31T05:49:11;15.90;99.90
9965;DHT22;5023;53.554;9.964;2023-07-31T05:54:12;16.00;99.90
9965;DHT22;5023;53.554;9.964;2023-07-31T05:59:16;16.00;99.90
9965;DHT22;5023;53.554;9.964;2023-07-31T06:04:18;16.00;99.90
9965;DHT22;5023;53.554;9.964;2023-07-31T06:09:20;16.10;99.90
9965;DHT22;5023;53.554;9.964;2023-07-31T06:14:23;16.10;99.90
9965;DHT22;5023;53.554;9.964;2023-07-31T06:19:25;16.10;99.90
9965;DHT22;5023;53.554;9.964;2023-07-31T06:24:28;16.10;99.90
9965;DHT22;5023;53.554;9.964;2023-07-31T06:29:31;16.20;99.90
9965;DHT22;5023;53.554;9.964;2023-07-31T06:34:33;16.20;99.90
9965;DHT22;5023;53.554;9.964;2023-07-31T06:39:35;16.20;99.90
9965;DHT22;5023;53.554;9.964;2023-07-31T06:44:39;16.20;99.90
9965;DHT22;5023;53.554;9.964;2023-07-31T06:49:41;16.10;99.90
9965;DHT22;5023;53.554;9.964;2023-07-31T06:54:43;16.20;99.90
9965;DHT22;5023;53.554;9.964;2023-07-31T06:59:46;16.30;99.90
9965;DHT22;5023;53.554;9.964;2023-07-31T07:04:49;16.20;99.90
9965;DHT22;5023;53.554;9.964;2023-07-31T07:09:51;16.30;99.90
9965;DHT22;5023;53.554;9.964;2023-07-31T07:14:55;16.30;99.90
9965;DHT22;5023;53.554;9.964;2023-07-31T07:19:58;16.30;99.90
9965;DHT22;5023;53.554;9.964;2023-07-31T07:25:00;16.30;99.90
9965;DHT22;5023;53.554;9.964;2023-07-31T07:30:04;16.30;99.90
9965;DHT22;5023;53.554;9.964;2023-07-31T07:35:07;16.30;99.90
9965;DHT22;5023;53.554;9.964;2023-07-31T07:40:09;16.30;99.90
9965;DHT22;5023;53.554;9.964;2023-07-31T07:45:12;16.40;99.90
9965;DHT22;5023;53.554;9.964;2023-07-31T07:50:14;16.40;99.90
9965;DHT22;5023;53.554;9.964;2023-07-31T07:55:16;16.50;99.90
9965;DHT22;5023;53.554;9.964;2023-07-31T08:00:19;16.60;99.90
9965;DHT22;5023;53.554;9.964;2023-07-31T08:05:21;16.60;99.90
9965;DHT22;5023;53.554;9.964;2023-07-31T08:10:23;16.60;99.90
9965;DHT22;5023;53.554;9.964;2023-07-31T08:15:27;16.70;99.90
9965;DHT22;5023;53.554;9.964;2023-07-31T08:20:28;16.80;99.90
9965;DHT22;5023;53.554;9.964;2023-07-31T08:25:30;16.80;99.90
9965;DHT22;5023;53.554;9.964;2023-07-31T08:30:37;16.90;99.90
9965;DHT22;5023;53.554;9.964;2023-07-31T08:35:39;17.00;99.90
9965;DHT22;5023;53.554;9.964;2023-07-31T08:40:41;17.10;99.90
9965;DHT22;5023;53.554;9.964;2023-07-31T08:45:44;17.10;99.90
9965;DHT22;5023;53.554;9.964;2023-07-31T08:50:46;17.10;99.90
9965;DHT22;5023;53.554;9.964;2023-07-31T08:55:48;17.30;99.90
9965;DHT22;5023;53.554;9.964;2023-07-31T09:00:52;17.30;99.90
9965;DHT22;5023;53.554;9.964;2023-07-31T09:05:56;17.40;99.90
9965;DHT22;5023;53.554;9.964;2023-07-31T09:11:00;17.40;99.90
9965;DHT22;5023;53.554;9.964;2023-07-31T09:16:05;17.40;99.90
9965;DHT22;5023;53.554;9.964;2023-07-31T09:21:07;17.40;99.90
9965;DHT22;5023;53.554;9.964;2023-07-31T09:26:09;17.30;99.90
9965;DHT22;5023;53.554;9.964;2023-07-31T09:31:12;17.30;99.90
9965;DHT22;5023;53.554;9.964;2023-07-31T09:36:14;17.30;99.90
9965;DHT22;5023;53.554;9.964;2023-07-31T09:41:16;17.30;99.90
9965;DHT22;5023;53.554;9.964;2023-07-31T09:46:20;17.30;99.90
9965;DHT22;5023;53.554;9.964;2023-07-31T09:51:26;17.40;99.90
9965;DHT22;5023;53.554;9.964;2023-07-31T09:56:29;17.40;99.90
9965;DHT22;5023;53.554;9.964;2023-07-31T10:01:33;17.50;99.90
9965;DHT22;5023;53.554;9.964;2023-07-31T10:06:36;17.60;99.90
9965;DHT22;5023;53.554;9.964;2023-07-31T10:11:40;17.50;99.90
9965;DHT22;5023;53.554;9.964;2023-07-31T10:16:46;17.40;99.90
9965;DHT22;5023;53.554;9.964;2023-07-31T10:21:49;17.40;99.90
9965;DHT22;5023;53.554;9.964;2023-07-31T10:26:52;17.50;99.90
9965;DHT22;5023;53.554;9.964;2023-07-31T10:31:56;17.50;99.90
9965;DHT22;5023;53.554;9.964;2023-07-31T10:37:20;17.50;99.90
9965;DHT22;5023;53.554;9.964;2023-07-31T10:42:28;17.50;99.90
9965;DHT22;5023;53.554;9.964;2023-07-31T10:47:37;17.50;99.90
9965;DHT22;5023;53.554;9.964;2023-07-31T10:52:40;17.40;99.90
9965;DHT22;5023;53.554;9.964;2023-07-31T10:57:44;17.50;99.90
9965;DHT22;5023;53.554;9.964;2023-07-31T11:02:58;17.30;99.90
9965;DHT22;5023;53.554;9.964;2023-07-31T11:08:00;17.30;99.90
9965;DHT22;5023;53.554;9.964;2023-07-31T11:13:11;17.40;99.90
9965;DHT22;5023;53.554;9.964;2023-07-31T11:18:15;17.50;99.90
9965;DHT22;5023;53.554;9.964;2023-07-31T11:23:17;17.60;99.90
9965;DHT22;5023;53.554;9.964;2023-07-31T11:28:19;17.80;99.90
9965;DHT22;5023;53.554;9.964;2023-07-31T11:33:22;17.70;99.90
9965;DHT22;5023;53.554;9.964;2023-07-31T11:38:26;17.70;99.90
9965;DHT22;5023;53.554;9.964;2023-07-31T11:43:28;17.80;99.90
9965;DHT22;5023;53.554;9.964;2023-07-31T11:48:33;17.70;99.90
9965;DHT22;5023;53.554;9.964;2023-07-31T11:53:40;17.70;99.90
9965;DHT22;5023;53.554;9.964;2023-07-31T11:58:43;17.70;99.90
9965;DHT22;5023;53.554;9.964;2023-07-31T12:03:47;17.60;99.90
9965;DHT22;5023;53.554;9.964;2023-07-31T12:08:49;17.50;99.90
9965;DHT22;5023;53.554;9.964;2023-07-31T12:13:51;17.40;99.90
9965;DHT22;5023;53.554;9.964;2023-07-31T12:18:54;17.20;99.90
9965;DHT22;5023;53.554;9.964;2023-07-31T12:23:56;17.20;99.90
9965;DHT22;5023;53.554;9.964;2023-07-31T12:28:58;17.30;99.90
9965;DHT22;5023;53.554;9.964;2023-07-31T12:34:01;17.20;99.90
9965;DHT22;5023;53.554;9.964;2023-07-31T12:39:04;17.00;99.90
9965;DHT22;5023;53.554;9.964;2023-07-31T12:44:05;17.00;99.90
9965;DHT22;5023;53.554;9.964;2023-07-31T12:49:09;17.00;99.90
9965;DHT22;5023;53.554;9.964;2023-07-31T12:54:12;17.00;99.90
9965;DHT22;5023;53.554;9.964;2023-07-31T12:59:14;16.90;99.90
9965;DHT22;5023;53.554;9.964;2023-07-31T13:04:17;16.80;99.90
9965;DHT22;5023;53.554;9.964;2023-07-31T13:09:19;16.70;99.90
9965;DHT22;5023;53.554;9.964;2023-07-31T13:14:21;16.70;99.90
9965;DHT22;5023;53.554;9.964;2023-07-31T13:19:24;16.80;99.90
9965;DHT22;5023;53.554;9.964;2023-07-31T13:24:26;16.70;99.90
9965;DHT22;5023;53.554;9.964;2023-07-31T13:29:28;16.80;99.90
9965;DHT22;5023;53.554;9.964;2023-07-31T13:34:31;17.00;99.90
9965;DHT22;5023;53.554;9.964;2023-07-31T13:39:34;17.10;99.90
9965;DHT22;5023;53.554;9.964;2023-07-31T13:44:36;17.10;99.90
9965;DHT22;5023;53.554;9.964;2023-07-31T13:49:40;17.30;99.90
9965;DHT22;5023;53.554;9.964;2023-07-31T13:54:43;17.50;99.90
9965;DHT22;5023;53.554;9.964;2023-07-31T13:59:45;17.50;99.90
9965;DHT22;5023;53.554;9.964;2023-07-31T14:04:48;17.60;99.90
9965;DHT22;5023;53.554;9.964;2023-07-31T14:09:50;17.80;99.90
9965;DHT22;5023;53.554;9.964;2023-07-31T14:14:52;18.00;99.90
9965;DHT22;5023;53.554;9.964;2023-07-31T14:19:55;18.20;99.90
9965;DHT22;5023;53.554;9.964;2023-07-31T14:24:57;18.30;99.90
9965;DHT22;5023;53.554;9.964;2023-07-31T14:29:59;18.30;99.90
9965;DHT22;5023;53.554;9.964;2023-07-31T14:35:03;18.40;99.90
9965;DHT22;5023;53.554;9.964;2023-07-31T14:40:06;18.40;99.90
9965;DHT22;5023;53.554;9.964;2023-07-31T14:45:09;18.40;99.90
9965;DHT22;5023;53.554;9.964;2023-07-31T14:50:12;18.50;99.90
9965;DHT22;5023;53.554;9.964;2023-07-31T14:55:14;18.40;99.90
9965;DHT22;5023;53.554;9.964;2023-07-31T15:00:16;18.40;99.90
9965;DHT22;5023;53.554;9.964;2023-07-31T15:05:20;18.40;99.90
9965;DHT22;5023;53.554;9.964;2023-07-31T15:10:22;18.40;99.90
9965;DHT22;5023;53.554;9.964;2023-07-31T15:15:24;18.30;99.90
9965;DHT22;5023;53.554;9.964;2023-07-31T15:20:28;18.50;99.90
9965;DHT22;5023;53.554;9.964;2023-07-31T15:25:30;18.40;99.90
9965;DHT22;5023;53.554;9.964;2023-07-31T15:30:32;18.50;99.90
9965;DHT22;5023;53.554;9.964;2023-07-31T15:35:36;18.40;99.90
9965;DHT22;5023;53.554;9.964;2023-07-31T15:40:38;18.60;99.90
9965;DHT22;5023;53.554;9.964;2023-07-31T15:45:40;18.60;99.90
9965;DHT22;5023;53.554;9.964;2023-07-31T15:50:46;18.60;99.90
9965;DHT22;5023;53.554;9.964;2023-07-31T15:55:48;18.40;99.90
9965;DHT22;5023;53.554;9.964;2023-07-31T16:00:50;18.50;99.90
9965;DHT22;5023;53.554;9.964;2023-07-31T16:05:53;18.40;99.90
9965;DHT22;5023;53.554;9.964;2023-07-31T16:10:55;18.40;99.90
9965;DHT22;5023;53.554;9.964;2023-07-31T16:15:57;18.50;99.90
9965;DHT22;5023;53.554;9.964;2023-07-31T16:21:01;18.30;99.90
9965;DHT22;5023;53.554;9.964;2023-07-31T16:26:02;18.40;99.90
9965;DHT22;5023;53.554;9.964;2023-07-31T16:31:05;18.30;99.90
9965;DHT22;5023;53.554;9.964;2023-07-31T16:36:08;18.20;99.90
9965;DHT22;5023;53.554;9.964;2023-07-31T16:41:10;18.30;99.90
9965;DHT22;5023;53.554;9.964;2023-07-31T16:46:12;18.20;99.90
9965;DHT22;5023;53.554;9.964;2023-07-31T16:51:18;18.20;99.90
9965;DHT22;5023;53.554;9.964;2023-07-31T16:56:21;18.10;99.90
9965;DHT22;5023;53.554;9.964;2023-07-31T17:01:23;18.30;99.90
9965;DHT22;5023;53.554;9.964;2023-07-31T17:06:32;18.20;99.90
9965;DHT22;5023;53.554;9.964;2023-07-31T17:11:35;18.20;99.90
9965;DHT22;5023;53.554;9.964;2023-07-31T17:16:37;18.30;99.90
9965;DHT22;5023;53.554;9.964;2023-07-31T17:21:40;18.20;99.90
9965;DHT22;5023;53.554;9.964;2023-07-31T17:26:42;18.20;99.90
9965;DHT22;5023;53.554;9.964;2023-07-31T17:31:44;18.40;99.90
9965;DHT22;5023;53.554;9.964;2023-07-31T17:36:48;18.40;99.90
9965;DHT22;5023;53.554;9.964;2023-07-31T17:41:50;18.30;99.90
9965;DHT22;5023;53.554;9.964;2023-07-31T17:46:52;18.50;99.90
9965;DHT22;5023;53.554;9.964;2023-07-31T17:51:56;18.60;99.90
9965;DHT22;5023;53.554;9.964;2023-07-31T17:56:57;18.50;99.90
9965;DHT22;5023;53.554;9.964;2023-07-31T18:02:00;18.60;99.90
9965;DHT22;5023;53.554;9.964;2023-07-31T18:07:03;18.50;99.90
9965;DHT22;5023;53.554;9.964;2023-07-31T18:12:07;18.70;99.90
9965;DHT22;5023;53.554;9.964;2023-07-31T18:17:09;18.60;99.90
9965;DHT22;5023;53.554;9.964;2023-07-31T18:22:13;18.70;99.90
9965;DHT22;5023;53.554;9.964;2023-07-31T18:27:18;18.60;99.90
9965;DHT22;5023;53.554;9.964;2023-07-31T18:32:21;18.60;99.90
9965;DHT22;5023;53.554;9.964;2023-07-31T18:37:24;18.60;99.90
9965;DHT22;5023;53.554;9.964;2023-07-31T18:42:29;18.50;99.90
9965;DHT22;5023;53.554;9.964;2023-07-31T18:47:30;18.50;99.90
9965;DHT22;5023;53.554;9.964;2023-07-31T18:52:34;18.40;99.90
9965;DHT22;5023;53.554;9.964;2023-07-31T18:57:36;18.60;99.90
9965;DHT22;5023;53.554;9.964;2023-07-31T19:02:40;18.50;99.90
9965;DHT22;5023;53.554;9.964;2023-07-31T19:07:44;18.60;99.90
9965;DHT22;5023;53.554;9.964;2023-07-31T19:12:46;18.60;99.90
9965;DHT22;5023;53.554;9.964;2023-07-31T19:17:48;18.60;99.90
9965;DHT22;5023;53.554;9.964;2023-07-31T19:22:52;18.50;99.90
9965;DHT22;5023;53.554;9.964;2023-07-31T19:27:54;18.60;99.90
9965;DHT22;5023;53.554;9.964;2023-07-31T19:32:55;18.60;99.90
9965;DHT22;5023;53.554;9.964;2023-07-31T19:37:59;18.60;99.90
9965;DHT22;5023;53.554;9.964;2023-07-31T19:43:01;18.50;99.90
9965;DHT22;5023;53.554;9.964;2023-07-31T19:48:03;18.50;99.90
9965;DHT22;5023;53.554;9.964;2023-07-31T19:53:06;18.50;99.90
9965;DHT22;5023;53.554;9.964;2023-07-31T19:58:08;18.50;99.90
9965;DHT22;5023;53.554;9.964;2023-07-31T20:03:10;18.50;99.90
9965;DHT22;5023;53.554;9.964;2023-07-31T20:08:14;18.40;99.90
9965;DHT22;5023;53.554;9.964;2023-07-31T20:13:16;18.40;99.90
9965;DHT22;5023;53.554;9.964;2023-07-31T20:18:17;18.30;99.90
9965;DHT22;5023;53.554;9.964;2023-07-31T20:23:21;18.30;99.90
9965;DHT22;5023;53.554;9.964;2023-07-31T20:28:23;18.30;99.90
9965;DHT22;5023;53.554;9.964;2023-07-31T20:33:25;18.30;99.90
9965;DHT22;5023;53.554;9.964;2023-07-31T20:38:28;18.20;99.90
9965;DHT22;5023;53.554;9.964;2023-07-31T20:43:30;18.20;99.90
9965;DHT22;5023;53.554;9.964;2023-07-31T20:48:32;18.40;99.90
9965;DHT22;5023;53.554;9.964;2023-07-31T20:53:35;18.40;99.90
9965;DHT22;5023;53.554;9.964;2023-07-31T20:58:38;18.20;99.90
9965;DHT22;5023;53.554;9.964;2023-07-31T21:03:40;18.30;99.90
9965;DHT22;5023;53.554;9.964;2023-07-31T21:08:43;18.30;99.90
9965;DHT22;5023;53.554;9.964;2023-07-31T21:13:45;18.20;99.90
9965;DHT22;5023;53.554;9.964;2023-07-31T21:18:48;18.10;99.90
9965;DHT22;5023;53.554;9.964;2023-07-31T21:23:52;18.20;99.90
9965;DHT22;5023;53.554;9.964;2023-07-31T21:28:53;18.10;99.90
9965;DHT22;5023;53.554;9.964;2023-07-31T21:33:55;18.10;99.90
9965;DHT22;5023;53.554;9.964;2023-07-31T21:38:59;18.00;99.90
9965;DHT22;5023;53.554;9.964;2023-07-31T21:44:01;18.00;99.90
9965;DHT22;5023;53.554;9.964;2023-07-31T21:49:03;18.10;99.90
9965;DHT22;5023;53.554;9.964;2023-07-31T21:54:07;18.00;99.90
9965;DHT22;5023;53.554;9.964;2023-07-31T21:59:09;18.00;99.90
9965;DHT22;5023;53.554;9.964;2023-07-31T22:04:11;17.90;99.90
9965;DHT22;5023;53.554;9.964;2023-07-31T22:09:14;17.90;99.90
9965;DHT22;5023;53.554;9.964;2023-07-31T22:14:16;17.80;99.90
9965;DHT22;5023;53.554;9.964;2023-07-31T22:19:18;17.70;99.90
9965;DHT22;5023;53.554;9.964;2023-07-31T22:24:22;17.70;99.90
9965;DHT22;5023;53.554;9.964;2023-07-31T22:29:25;17.70;99.90
9965;DHT22;5023;53.554;9.964;2023-07-31T22:34:26;17.70;99.90
9965;DHT22;5023;53.554;9.964;2023-07-31T22:39:30;17.50;99.90
9965;DHT22;5023;53.554;9.964;2023-07-31T22:44:32;17.50;99.90
9965;DHT22;5023;53.554;9.964;2023-07-31T22:49:34;17.50;99.90
9965;DHT22;5023;53.554;9.964;2023-07-31T22:54:37;17.60;99.90
9965;DHT22;5023;53.554;9.964;2023-07-31T22:59:39;17.60;99.90
9965;DHT22;5023;53.554;9.964;2023-07-31T23:04:41;17.80;99.90
9965;DHT22;5023;53.554;9.964;2023-07-31T23:09:44;17.70;99.90
9965;DHT22;5023;53.554;9.964;2023-07-31T23:14:46;17.70;99.90
9965;DHT22;5023;53.554;9.964;2023-07-31T23:19:48;17.80;99.90
9965;DHT22;5023;53.554;9.964;2023-07-31T23:24:53;17.80;99.90
9965;DHT22;5023;53.554;9.964;2023-07-31T23:29:55;17.80;99.90
9965;DHT22;5023;53.554;9.964;2023-07-31T23:34:57;17.70;99.90
9965;DHT22;5023;53.554;9.964;2023-07-31T23:40:00;17.60;99.90
9965;DHT22;5023;53.554;9.964;2023-07-31T23:45:04;17.60;99.90
9965;DHT22;5023;53.554;9.964;2023-07-31T23:50:07;17.70;99.90
9965;DHT22;5023;53.554;9.964;2023-07-31T23:55:11;17.60;99.90
